createdAt,value
2022-10-27T00:02:02.964Z,73.39
2022-10-27T00:04:29.676Z,74.10
2022-10-27T00:06:56.369Z,75.68
2022-10-27T00:09:22.988Z,75.17
2022-10-27T00:11:49.632Z,74.83
2022-10-27T00:14:16.283Z,73.63
2022-10-27T00:16:43.136Z,72.41
2022-10-27T00:19:09.768Z,73.11
2022-10-27T00:21:36.377Z,74.39
2022-10-27T00:24:03.027Z,74.60
2022-10-27T00:26:29.652Z,75.18
2022-10-27T00:28:56.351Z,75.40
2022-10-27T00:31:22.957Z,75.95
2022-10-27T00:33:51.084Z,76.39
2022-10-27T00:36:23.093Z,76.02
2022-10-27T00:38:52.873Z,76.63
2022-10-27T00:41:30.229Z,76.35
2022-10-27T00:43:58.708Z,76.76
2022-10-27T00:46:39.617Z,76.80
2022-10-27T00:49:09.913Z,76.19
2022-10-27T00:51:43.301Z,76.02
2022-10-27T00:54:11.802Z,75.92
2022-10-27T00:56:39.382Z,75.44
2022-10-27T00:59:06.079Z,76.08
2022-10-27T01:01:33.166Z,76.22
2022-10-27T01:04:00.036Z,75.85
2022-10-27T01:06:27.426Z,75.70
2022-10-27T01:08:54.589Z,75.88
2022-10-27T01:11:21.199Z,75.81
2022-10-27T01:13:47.912Z,75.88
2022-10-27T01:16:20.426Z,75.99
2022-10-27T01:18:53.113Z,75.42
2022-10-27T01:21:25.631Z,75.58
2022-10-27T01:24:20.514Z,75.58
2022-10-27T01:26:58.436Z,76.99
2022-10-27T01:29:40.220Z,76.25
2022-10-27T01:32:26.727Z,76.09
2022-10-27T01:35:02.386Z,75.68
2022-10-27T01:37:41.825Z,75.90
2022-10-27T01:40:20.951Z,75.72
2022-10-27T01:42:54.789Z,75.93
2022-10-27T01:45:27.254Z,75.39
2022-10-27T01:47:56.110Z,75.14
2022-10-27T01:50:45.007Z,74.58
2022-10-27T01:53:19.997Z,74.81
2022-10-27T01:55:49.614Z,74.46
2022-10-27T01:58:46.895Z,74.88
2022-10-27T02:01:51.356Z,74.77
2022-10-27T02:04:25.720Z,75.10
2022-10-27T02:07:10.760Z,74.42
2022-10-27T02:10:00.059Z,74.08
2022-10-27T02:12:30.908Z,74.32
2022-10-27T02:15:00.751Z,74.45
2022-10-27T02:17:34.953Z,74.03
2022-10-27T02:20:04.064Z,74.26
2022-10-27T02:22:32.793Z,74.68
2022-10-27T02:25:00.070Z,74.63
2022-10-27T02:27:50.000Z,74.33
2022-10-27T02:30:16.848Z,75.58
2022-10-27T02:32:44.758Z,75.68
2022-10-27T02:35:12.627Z,75.34
2022-10-27T02:37:41.779Z,76.03
2022-10-27T02:40:09.710Z,75.57
2022-10-27T02:42:36.420Z,76.26
2022-10-27T02:45:03.475Z,76.40
2022-10-27T02:47:30.151Z,76.72
2022-10-27T02:49:56.821Z,76.03
2022-10-27T02:52:23.525Z,75.92
2022-10-27T02:54:50.210Z,75.42
2022-10-27T02:57:20.240Z,74.89
2022-10-27T02:59:49.658Z,74.86
2022-10-27T03:02:20.166Z,74.87
2022-10-27T03:04:46.942Z,74.91
2022-10-27T03:07:13.632Z,75.74
2022-10-27T03:09:40.328Z,76.72
2022-10-27T03:12:07.192Z,76.69
2022-10-27T03:14:33.840Z,77.04
2022-10-27T03:17:00.435Z,76.77
2022-10-27T03:19:27.174Z,76.61
2022-10-27T03:21:53.828Z,76.03
2022-10-27T03:24:20.474Z,76.02
2022-10-27T03:26:47.342Z,75.96
2022-10-27T03:29:14.022Z,75.79
2022-10-27T03:31:41.016Z,75.19
2022-10-27T03:34:07.766Z,75.09
2022-10-27T03:36:34.495Z,75.17
2022-10-27T03:39:01.644Z,74.95
2022-10-27T03:41:28.323Z,75.19
2022-10-27T03:43:54.986Z,74.76
2022-10-27T03:46:21.651Z,74.53
2022-10-27T03:48:48.292Z,74.18
2022-10-27T03:51:15.061Z,74.08
2022-10-27T03:53:41.731Z,74.39
2022-10-27T03:56:10.120Z,74.38
2022-10-27T03:58:36.786Z,75.33
2022-10-27T04:01:05.682Z,74.43
2022-10-27T04:03:33.255Z,74.32
2022-10-27T04:05:59.998Z,74.13
2022-10-27T04:08:27.247Z,73.80
2022-10-27T04:10:54.218Z,73.64
2022-10-27T04:13:20.989Z,73.12
2022-10-27T04:15:47.885Z,73.43
2022-10-27T04:18:14.675Z,72.95
2022-10-27T04:20:41.465Z,73.59
2022-10-27T04:23:08.261Z,73.36
2022-10-27T04:25:35.128Z,73.11
2022-10-27T04:28:06.883Z,73.52
2022-10-27T04:30:34.220Z,73.43
2022-10-27T04:33:00.948Z,73.14
2022-10-27T04:35:28.049Z,73.00
2022-10-27T04:37:56.497Z,73.26
2022-10-27T04:40:23.389Z,73.11
2022-10-27T04:42:50.039Z,73.08
2022-10-27T04:45:17.092Z,72.91
2022-10-27T04:47:45.051Z,72.69
2022-10-27T04:50:13.487Z,72.94
2022-10-27T04:52:43.520Z,72.58
2022-10-27T04:55:11.581Z,72.85
2022-10-27T04:57:38.234Z,72.44
2022-10-27T05:00:05.677Z,72.38
2022-10-27T05:02:34.822Z,72.42
2022-10-27T05:05:04.952Z,73.24
2022-10-27T05:07:31.599Z,73.24
2022-10-27T05:09:58.297Z,73.77
2022-10-27T05:12:25.030Z,74.19
2022-10-27T05:14:51.689Z,74.72
2022-10-27T05:17:19.563Z,76.00
2022-10-27T05:19:46.813Z,75.37
2022-10-27T05:22:13.482Z,75.54
2022-10-27T05:24:40.157Z,75.35
2022-10-27T05:27:06.799Z,74.97
2022-10-27T05:29:33.709Z,74.64
2022-10-27T05:32:00.422Z,74.14
2022-10-27T05:34:27.044Z,74.15
2022-10-27T05:36:53.701Z,74.88
2022-10-27T05:39:20.365Z,75.14
2022-10-27T05:41:47.031Z,75.47
2022-10-27T05:44:13.687Z,74.48
2022-10-27T05:46:40.367Z,74.20
2022-10-27T05:49:07.011Z,73.99
2022-10-27T05:51:33.711Z,73.57
2022-10-27T05:54:00.382Z,74.62
2022-10-27T05:56:27.432Z,75.59
2022-10-27T05:58:54.171Z,75.86
2022-10-27T06:01:21.335Z,76.49
2022-10-27T06:03:48.067Z,76.48
2022-10-27T06:06:14.679Z,75.66
2022-10-27T06:08:41.319Z,75.45
2022-10-27T06:11:07.953Z,74.75
2022-10-27T06:13:34.682Z,74.65
2022-10-27T06:16:01.303Z,74.21
2022-10-27T06:18:27.965Z,73.78
2022-10-27T06:20:54.685Z,74.20
2022-10-27T06:23:21.360Z,74.21
2022-10-27T06:25:48.071Z,73.71
2022-10-27T06:28:15.042Z,73.51
2022-10-27T06:30:43.333Z,73.11
2022-10-27T06:33:10.019Z,73.39
2022-10-27T06:35:36.650Z,72.98
2022-10-27T06:38:03.214Z,73.02
2022-10-27T06:40:29.892Z,72.84
2022-10-27T06:43:12.016Z,72.65
2022-10-27T06:45:40.173Z,72.81
2022-10-27T06:48:09.931Z,72.52
2022-10-27T06:50:36.598Z,72.37
2022-10-27T06:53:03.514Z,71.84
2022-10-27T06:55:31.412Z,72.69
2022-10-27T06:57:58.313Z,72.66
2022-10-27T07:00:25.383Z,72.27
2022-10-27T07:02:52.141Z,72.26
2022-10-27T07:05:18.936Z,72.30
2022-10-27T07:07:47.365Z,72.23
2022-10-27T07:10:14.485Z,72.10
2022-10-27T07:12:51.988Z,71.50
2022-10-27T07:15:19.068Z,71.21
2022-10-27T07:17:45.765Z,70.11
2022-10-27T07:20:12.543Z,70.11
2022-10-27T07:22:41.988Z,69.30
2022-10-27T07:25:08.906Z,68.50
2022-10-27T07:27:35.704Z,67.87
2022-10-27T07:30:02.417Z,66.52
2022-10-27T07:32:29.164Z,65.58
2022-10-27T07:34:55.817Z,64.74
2022-10-27T07:37:22.473Z,64.21
2022-10-27T07:39:49.703Z,63.78
2022-10-27T07:42:17.636Z,63.91
2022-10-27T07:44:44.454Z,63.14
2022-10-27T07:47:11.637Z,63.97
2022-10-27T07:49:38.340Z,63.27
2022-10-27T07:52:05.130Z,63.32
2022-10-27T07:54:31.732Z,62.38
2022-10-27T07:56:58.414Z,62.89
2022-10-27T07:59:25.093Z,63.63
2022-10-27T08:01:51.851Z,65.26
2022-10-27T08:04:18.541Z,66.88
2022-10-27T08:06:45.185Z,67.36
2022-10-27T08:09:15.223Z,67.25
2022-10-27T08:11:45.286Z,66.63
2022-10-27T08:14:12.628Z,65.83
2022-10-27T08:16:39.409Z,65.55
2022-10-27T08:19:06.093Z,62.85
2022-10-27T08:21:32.734Z,60.13
2022-10-27T08:23:59.428Z,56.11
2022-10-27T08:26:26.160Z,54.52
2022-10-27T08:28:52.867Z,54.15
2022-10-27T08:31:19.977Z,55.04
2022-10-27T08:33:46.673Z,55.47
2022-10-27T08:36:13.818Z,54.55
2022-10-27T08:38:40.463Z,53.49
2022-10-27T08:41:36.060Z,50.97
2022-10-27T08:44:18.235Z,48.42
2022-10-27T08:46:52.198Z,46.04
2022-10-27T08:49:36.693Z,43.45
2022-10-27T08:52:11.846Z,40.53
2022-10-27T08:54:40.860Z,37.13
2022-10-27T08:57:12.886Z,36.60
2022-10-27T08:59:41.516Z,34.81
2022-10-27T09:02:31.097Z,33.12
2022-10-27T09:05:08.018Z,32.32
2022-10-27T09:08:01.013Z,30.74
2022-10-27T09:10:45.986Z,30.62
2022-10-27T09:13:51.633Z,30.33
2022-10-27T09:16:34.076Z,30.78
2022-10-27T09:19:05.541Z,29.53
2022-10-27T09:21:36.939Z,30.04
2022-10-27T09:24:11.653Z,30.06
2022-10-27T09:26:40.928Z,28.96
2022-10-27T09:29:20.113Z,28.75
2022-10-27T09:31:55.450Z,27.47
2022-10-27T09:34:28.182Z,27.45
2022-10-27T09:36:55.468Z,26.21
2022-10-27T09:39:22.375Z,26.12
2022-10-27T09:41:49.881Z,27.00
2022-10-27T09:44:22.856Z,26.96
2022-10-27T09:46:54.633Z,26.58
2022-10-27T09:49:27.749Z,25.87
2022-10-27T09:52:03.597Z,25.67
2022-10-27T09:54:31.646Z,25.79
2022-10-27T09:57:11.413Z,26.34
2022-10-27T09:59:40.283Z,25.88
2022-10-27T10:02:24.544Z,23.90
2022-10-27T10:04:51.408Z,24.47
2022-10-27T10:07:46.847Z,25.09
2022-10-27T10:10:25.738Z,24.08
2022-10-27T10:13:02.374Z,24.00
2022-10-27T10:15:30.659Z,23.66
2022-10-27T10:18:00.756Z,24.08
2022-10-27T10:20:30.571Z,24.15
2022-10-27T10:22:57.981Z,24.28
2022-10-27T10:25:28.155Z,24.51
2022-10-27T10:28:01.043Z,24.24
2022-10-27T10:30:27.990Z,24.22
2022-10-27T10:32:57.304Z,24.71
2022-10-27T10:35:40.661Z,23.78
2022-10-27T10:38:27.566Z,23.39
2022-10-27T10:41:12.350Z,23.36
2022-10-27T10:43:40.464Z,23.36
2022-10-27T10:46:21.989Z,22.83
2022-10-27T10:48:59.075Z,22.55
2022-10-27T10:51:28.464Z,22.79
2022-10-27T10:54:06.336Z,22.76
2022-10-27T10:56:35.852Z,22.88
2022-10-27T10:59:06.451Z,21.48
2022-10-27T11:01:48.501Z,22.22
2022-10-27T11:04:21.602Z,21.86
2022-10-27T11:07:03.024Z,22.19
2022-10-27T11:09:44.333Z,22.22
2022-10-27T11:12:21.225Z,21.95
2022-10-27T11:14:53.830Z,21.34
2022-10-27T11:17:24.795Z,21.33
2022-10-27T11:19:56.887Z,21.70
2022-10-27T11:22:25.870Z,21.13
2022-10-27T11:25:14.312Z,21.09
2022-10-27T11:27:57.085Z,21.40
2022-10-27T11:30:25.856Z,21.65
2022-10-27T11:33:37.770Z,21.17
2022-10-27T11:36:11.462Z,20.78
2022-10-27T11:38:45.115Z,20.34
2022-10-27T11:41:34.790Z,21.28
2022-10-27T11:44:38.672Z,21.02
2022-10-27T11:47:12.826Z,21.06
2022-10-27T11:49:49.263Z,21.40
2022-10-27T11:52:30.095Z,22.32
2022-10-27T11:54:57.894Z,22.70
2022-10-27T11:57:45.891Z,23.24
2022-10-27T12:00:22.479Z,24.11
2022-10-27T12:03:46.779Z,24.16
2022-10-27T12:06:30.005Z,24.20
2022-10-27T12:09:20.615Z,26.15
2022-10-27T12:11:57.787Z,27.33
2022-10-27T12:14:45.129Z,27.83
2022-10-27T12:17:22.522Z,29.15
2022-10-27T12:19:50.800Z,28.91
2022-10-27T12:22:27.443Z,30.02
2022-10-27T12:25:00.357Z,30.89
2022-10-27T12:27:32.371Z,31.13
2022-10-27T12:30:10.734Z,31.85
2022-10-27T12:32:43.185Z,32.84
2022-10-27T12:35:32.767Z,33.05
2022-10-27T12:38:07.877Z,33.08
2022-10-27T12:40:48.810Z,33.53
2022-10-27T12:43:20.561Z,34.33
2022-10-27T12:46:24.550Z,35.53
2022-10-27T12:49:09.506Z,35.79
2022-10-27T12:52:08.990Z,34.98
2022-10-27T12:55:07.029Z,36.32
2022-10-27T12:57:44.508Z,35.68
2022-10-27T13:00:16.197Z,36.29
2022-10-27T13:02:55.476Z,36.51
2022-10-27T13:05:47.660Z,37.13
2022-10-27T13:08:33.212Z,37.84
2022-10-27T13:11:05.874Z,38.34
2022-10-27T13:13:42.777Z,37.57
2022-10-27T13:16:09.418Z,37.27
2022-10-27T13:18:49.942Z,37.27
2022-10-27T13:21:47.809Z,38.75
2022-10-27T13:24:44.899Z,38.52
2022-10-27T13:27:14.555Z,39.72
2022-10-27T13:30:08.386Z,39.55
2022-10-27T13:32:52.821Z,39.46
2022-10-27T13:35:19.487Z,39.91
2022-10-27T13:38:09.757Z,39.84
2022-10-27T13:40:38.155Z,40.10
2022-10-27T13:43:24.690Z,40.07
2022-10-27T13:45:55.865Z,39.62
2022-10-27T13:48:22.435Z,39.76
2022-10-27T13:50:50.394Z,40.74
2022-10-27T13:53:20.288Z,40.72
2022-10-27T13:55:47.056Z,40.57
2022-10-27T13:58:19.951Z,41.11
2022-10-27T14:00:49.551Z,41.09
2022-10-27T14:03:57.734Z,40.80
2022-10-27T14:06:45.600Z,40.77
2022-10-27T14:09:45.203Z,40.99
2022-10-27T14:12:18.335Z,41.94
2022-10-27T14:14:51.329Z,41.83
2022-10-27T14:17:29.136Z,41.34
2022-10-27T14:20:03.232Z,42.11
2022-10-27T14:22:42.762Z,41.92
2022-10-27T14:25:21.666Z,42.90
2022-10-27T14:27:49.813Z,42.53
2022-10-27T14:30:22.511Z,42.78
2022-10-27T14:32:49.268Z,43.70
2022-10-27T14:35:21.126Z,43.46
2022-10-27T14:37:48.096Z,44.72
2022-10-27T14:40:22.122Z,44.09
2022-10-27T14:42:50.744Z,44.72
2022-10-27T14:45:21.201Z,44.65
2022-10-27T14:48:04.005Z,44.68
2022-10-27T14:50:40.562Z,45.96
2022-10-27T14:53:23.494Z,45.82
2022-10-27T14:56:40.495Z,47.13
2022-10-27T14:59:21.329Z,46.87
2022-10-27T15:01:48.987Z,47.91
2022-10-27T15:04:27.052Z,46.41
2022-10-27T15:07:02.519Z,46.78
2022-10-27T15:09:38.065Z,46.99
2022-10-27T15:12:24.874Z,47.16
2022-10-27T15:14:53.964Z,48.42
2022-10-27T15:17:31.324Z,48.13
2022-10-27T15:20:00.000Z,48.03
2022-10-27T15:22:28.098Z,48.69
2022-10-27T15:24:55.641Z,49.50
2022-10-27T15:27:22.955Z,49.41
2022-10-27T15:29:51.768Z,49.31
2022-10-27T15:32:27.406Z,49.60
2022-10-27T15:34:54.114Z,49.67
2022-10-27T15:37:20.705Z,49.24
2022-10-27T15:39:47.438Z,49.89
2022-10-27T15:42:19.617Z,50.03
2022-10-27T15:44:48.034Z,49.82
2022-10-27T15:47:41.349Z,49.59
2022-10-27T15:50:29.885Z,50.55
2022-10-27T15:53:15.434Z,50.05
2022-10-27T15:55:45.835Z,50.62
2022-10-27T15:58:39.220Z,50.87
2022-10-27T16:01:29.408Z,50.38
2022-10-27T16:03:58.462Z,50.84
2022-10-27T16:06:29.663Z,51.14
2022-10-27T16:08:58.663Z,51.35
2022-10-27T16:11:30.601Z,51.49
2022-10-27T16:13:59.581Z,51.83
2022-10-27T16:16:26.644Z,52.24
2022-10-27T16:18:55.393Z,52.50
2022-10-27T16:21:29.373Z,52.56
2022-10-27T16:24:12.283Z,53.16
2022-10-27T16:26:39.241Z,53.32
2022-10-27T16:29:06.105Z,53.12
2022-10-27T16:31:32.929Z,54.00
2022-10-27T16:33:59.653Z,53.59
2022-10-27T16:36:26.536Z,54.03
2022-10-27T16:38:53.171Z,54.38
2022-10-27T16:41:26.683Z,54.62
2022-10-27T16:43:53.594Z,54.81
2022-10-27T16:46:20.372Z,55.61
2022-10-27T16:48:47.196Z,55.59
2022-10-27T16:51:16.109Z,55.66
2022-10-27T16:53:43.707Z,55.92
2022-10-27T16:56:12.697Z,56.21
2022-10-27T16:58:41.848Z,56.24
2022-10-27T17:01:21.178Z,56.27
2022-10-27T17:03:48.518Z,56.35
2022-10-27T17:06:17.956Z,56.68
2022-10-27T17:08:44.665Z,56.39
2022-10-27T17:11:13.846Z,56.53
2022-10-27T17:13:40.855Z,56.36
2022-10-27T17:16:12.690Z,56.29
2022-10-27T17:18:39.283Z,56.37
2022-10-27T17:21:06.170Z,56.86
2022-10-27T17:23:32.868Z,56.67
2022-10-27T17:26:05.102Z,56.71
2022-10-27T17:28:32.255Z,56.81
2022-10-27T17:31:00.718Z,56.87
2022-10-27T17:33:27.940Z,56.91
2022-10-27T17:35:59.472Z,56.83
2022-10-27T17:38:26.594Z,57.37
2022-10-27T17:40:54.687Z,57.40
2022-10-27T17:43:22.549Z,57.45
2022-10-27T17:46:04.263Z,57.61
2022-10-27T17:48:35.860Z,57.87
2022-10-27T17:51:09.535Z,57.66
2022-10-27T17:53:37.755Z,57.92
2022-10-27T17:56:07.386Z,57.85
2022-10-27T17:58:37.552Z,57.90
2022-10-27T18:01:08.177Z,57.89
2022-10-27T18:03:38.165Z,58.18
2022-10-27T18:06:07.682Z,57.99
2022-10-27T18:08:34.609Z,58.20
2022-10-27T18:11:03.457Z,58.04
2022-10-27T18:13:34.859Z,58.63
2022-10-27T18:16:02.578Z,58.51
2022-10-27T18:18:29.304Z,58.42
2022-10-27T18:20:56.007Z,58.40
2022-10-27T18:23:22.663Z,58.63
2022-10-27T18:25:49.309Z,58.62
2022-10-27T18:28:15.983Z,58.90
2022-10-27T18:30:42.724Z,58.87
2022-10-27T18:33:09.369Z,59.05
2022-10-27T18:35:36.372Z,59.18
2022-10-27T18:38:03.040Z,59.10
2022-10-27T18:40:29.645Z,59.17
2022-10-27T18:42:58.824Z,59.37
2022-10-27T18:45:28.007Z,59.28
2022-10-27T18:47:54.673Z,59.40
2022-10-27T18:50:21.414Z,59.30
2022-10-27T18:52:48.147Z,59.48
2022-10-27T18:55:14.959Z,59.90
2022-10-27T18:57:41.574Z,59.29
2022-10-27T19:00:09.035Z,59.85
2022-10-27T19:02:35.861Z,60.03
2022-10-27T19:05:02.733Z,59.77
2022-10-27T19:07:29.969Z,60.23
2022-10-27T19:09:56.612Z,60.16
2022-10-27T19:12:23.457Z,60.29
2022-10-27T19:14:50.093Z,60.26
2022-10-27T19:17:16.746Z,60.49
2022-10-27T19:19:43.419Z,60.80
2022-10-27T19:22:10.074Z,60.96
2022-10-27T19:24:36.802Z,61.36
2022-10-27T19:27:03.581Z,61.22
2022-10-27T19:29:30.570Z,61.56
2022-10-27T19:31:57.186Z,61.45
2022-10-27T19:34:23.942Z,60.85
2022-10-27T19:36:50.676Z,61.68
2022-10-27T19:39:17.433Z,62.30
2022-10-27T19:41:44.104Z,62.36
2022-10-27T19:44:12.279Z,62.12
2022-10-27T19:46:39.173Z,62.13
2022-10-27T19:49:07.680Z,62.32
2022-10-27T19:51:37.569Z,61.87
2022-10-27T19:54:05.176Z,61.95
2022-10-27T19:56:33.090Z,61.59
2022-10-27T19:59:02.982Z,62.02
2022-10-27T20:01:36.504Z,61.97
2022-10-27T20:04:05.730Z,62.18
2022-10-27T20:06:32.867Z,61.74
2022-10-27T20:08:59.948Z,62.52
2022-10-27T20:11:29.522Z,62.77
2022-10-27T20:13:57.129Z,62.66
2022-10-27T20:16:27.180Z,63.05
2022-10-27T20:18:53.966Z,62.69
2022-10-27T20:21:20.698Z,62.40
2022-10-27T20:23:47.634Z,62.99
2022-10-27T20:26:31.125Z,62.76
2022-10-27T20:28:58.957Z,62.65
2022-10-27T20:31:26.188Z,62.81
2022-10-27T20:33:52.988Z,62.83
2022-10-27T20:36:19.790Z,62.35
2022-10-27T20:38:46.741Z,62.48
2022-10-27T20:41:15.751Z,62.44
2022-10-27T20:43:42.556Z,62.68
2022-10-27T20:46:10.285Z,62.85
2022-10-27T20:48:37.892Z,62.62
2022-10-27T20:51:11.709Z,63.16
2022-10-27T20:53:39.368Z,63.05
2022-10-27T20:56:06.989Z,63.10
2022-10-27T20:58:33.679Z,62.87
2022-10-27T21:01:24.747Z,62.97
2022-10-27T21:03:52.908Z,63.31
2022-10-27T21:06:19.675Z,63.01
2022-10-27T21:08:46.423Z,62.63
2022-10-27T21:11:13.068Z,62.70
2022-10-27T21:13:39.729Z,62.60
2022-10-27T21:16:06.494Z,62.67
2022-10-27T21:18:33.137Z,63.03
2022-10-27T21:20:59.796Z,62.61
2022-10-27T21:23:26.427Z,62.95
2022-10-27T21:25:53.054Z,63.05
2022-10-27T21:28:19.702Z,62.86
2022-10-27T21:30:46.302Z,63.00
2022-10-27T21:33:12.956Z,63.02
2022-10-27T21:35:39.684Z,63.07
2022-10-27T21:38:06.444Z,62.69
2022-10-27T21:40:33.938Z,62.98
2022-10-27T21:43:00.686Z,62.70
2022-10-27T21:45:27.294Z,62.49
2022-10-27T21:47:54.297Z,62.75
2022-10-27T21:50:21.362Z,62.81
2022-10-27T21:52:48.024Z,62.32
2022-10-27T21:55:14.799Z,62.43
2022-10-27T21:57:43.036Z,62.43
2022-10-27T22:00:12.290Z,62.26
2022-10-27T22:02:38.920Z,61.84
2022-10-27T22:05:05.709Z,62.33
2022-10-27T22:07:32.316Z,62.58
2022-10-27T22:09:58.985Z,62.42
2022-10-27T22:12:25.676Z,62.44
2022-10-27T22:14:52.373Z,62.25
2022-10-27T22:17:19.016Z,62.21
2022-10-27T22:19:46.283Z,62.32
2022-10-27T22:22:12.923Z,62.91
2022-10-27T22:24:39.531Z,62.71
2022-10-27T22:27:06.176Z,62.64
2022-10-27T22:29:32.840Z,62.62
2022-10-27T22:31:59.465Z,62.45
2022-10-27T22:34:26.117Z,62.19
2022-10-27T22:36:52.777Z,62.33
2022-10-27T22:39:19.405Z,62.37
2022-10-27T22:41:46.118Z,62.55
2022-10-27T22:44:12.770Z,62.97
2022-10-27T22:46:39.425Z,62.39
2022-10-27T22:49:06.083Z,62.45
2022-10-27T22:51:32.749Z,62.81
2022-10-27T22:53:59.512Z,62.33
2022-10-27T22:56:29.370Z,62.66
2022-10-27T22:59:00.873Z,62.64
2022-10-27T23:01:33.328Z,62.30
2022-10-27T23:04:02.789Z,62.77
2022-10-27T23:06:31.648Z,62.37
2022-10-27T23:09:01.811Z,62.64
2022-10-27T23:11:34.291Z,62.43
2022-10-27T23:14:02.293Z,62.42
2022-10-27T23:16:30.453Z,62.33
2022-10-27T23:18:58.604Z,62.41
2022-10-27T23:21:26.048Z,62.10
2022-10-27T23:23:54.117Z,62.39
2022-10-27T23:26:40.576Z,62.32
2022-10-27T23:29:10.585Z,62.09
2022-10-27T23:31:37.373Z,62.30
2022-10-27T23:34:05.546Z,62.41
2022-10-27T23:36:34.313Z,61.95
2022-10-27T23:39:01.418Z,61.83
2022-10-27T23:41:28.212Z,61.36
2022-10-27T23:43:56.709Z,60.87
2022-10-27T23:46:25.025Z,60.76
2022-10-27T23:48:52.741Z,60.73
2022-10-27T23:53:47.783Z,59.80
2022-10-27T23:56:14.493Z,59.41
2022-10-27T23:58:42.999Z,59.10
